x

Diamond Shoals (41025) Wave Buoy

7:50pm - Sat 21st Oct 2017 All times are EDT. -4 hours from GMT.

  • Sig Wave height 3.0ft
  • Swell Direction
  • Peak Period 9s
  • Average Period 6s
  • Wind
    9mph, 11mph gusts
  • Sea Temp 81°f
  • Air Temp 73°f
  • Sea Pressure 1026.9mb
  • Diamond Shoals
  • Diamond Shoals

More Historic Weather Station data

Upgrade to MSW Pro to gain access to the past 30 days of data for over 8000 Wavebouys and Weather Stations around the globe.

Join

Comparision Forecast

View Surf forecast
   
Sat 10/21 7:50pm 3ft 9s 6s 9 11 mph 1026.9mb 81f 73f
6:50pm 3ft 8s 6s 9 13 mph 1026.6mb 81f 73f
5:50pm 3ft 8s 6s 9 11 mph 1026.3mb 81f 73f
4:50pm 3ft 9s 6s 9 11 mph 1026.1mb 81f 73f
3:50pm 3ft 8s 6s 11 13 mph 1026mb 81f 73f
2:50pm 3ft 9s 6s 13 18 mph 1025.9mb 81f 73f
1:50pm 3ft 8s 5s 9 13 mph 1026.3mb 81f 73f
12:50pm 3ft 8s 5s 11 16 mph 1026.5mb 81f 73f
11:50am 3ft 9s 5s 11 16 mph 1026.8mb 81f 73f
10:50am 3ft 8s 5s 13 16 mph 1026.7mb 81f 73f
9:50am 2.5ft 8s 5s 16 18 mph 1026.3mb 80f 73f
8:50am 2.5ft 8s 5s 16 18 mph 1025.7mb 80f 72f
7:50am 3ft 8s 5s 11 13 mph 1024.7mb 80f 73f
6:50am 2.5ft 8s 6s 11 13 mph 1024.4mb 80f 73f
5:50am 2.5ft 9s 6s 9 11 mph 1024.1mb 80f 74f
4:50am 2.5ft 8s 6s 9 13 mph 1023.9mb 81f 74f
3:50am 2.5ft 9s 6s 9 11 mph 1023.6mb 81f 74f
2:50am 2.5ft 9s 6s 9 11 mph 1024mb 81f 74f
1:50am 2.5ft 8s 6s 7 11 mph 1024mb 81f 73f
12:50am 2.5ft 8s 6s 9 11 mph 1024mb 81f 72f
Fri 10/20 11:50pm 3ft 8s 7s 9 11 mph 1024mb 81f 73f
10:50pm 3ft 9s 6s 4 7 mph 1023.8mb 81f 73f
9:50pm 3ft 8s 7s 4 7 mph 1023.2mb 81f 73f
8:50pm 2.5ft 8s 7s 7 9 mph 1022.8mb 81f 73f
7:50pm 2.5ft 8s 6s 4 7 mph 1022.6mb 81f 73f
6:50pm 2.5ft 9s 6s 4 7 mph 1022.3mb 81f 73f
5:50pm 3ft 8s 7s 4 9 mph 1022mb 82f 73f
4:50pm 3ft 9s 6s 7 11 mph 1021.9mb 82f 73f
3:50pm 3ft 8s 6s 4 7 mph 1022mb 82f 73f
2:50pm 3.5ft 9s 6s 7 9 mph 1022mb 82f 72f
1:50pm 3.5ft 9s 6s 7 11 mph 1022.4mb 82f 72f
12:50pm 3ft 8s 6s 7 9 mph 1023.3mb 81f 72f
11:50am 3.5ft 8s 6s 7 9 mph 1023.7mb 81f 72f
10:50am 3ft 8s 6s 9 11 mph 1023.8mb 81f 71f
9:50am 3.5ft 8s 6s 9 13 mph 1023.9mb 81f 71f
8:50am 3.5ft 10s 6s 11 13 mph 1023.4mb 81f 72f
7:50am 3.5ft 9s 6s 9 13 mph 1022.7mb 81f 72f
6:50am 3.5ft 9s 6s 9 13 mph 1022.2mb 81f 72f
5:50am 3.5ft 8s 6s 9 11 mph 1022mb 81f 73f
4:50am 3.5ft 9s 6s 9 13 mph 1021.8mb 81f 73f
3:50am 3.5ft 8s 6s 9 13 mph 1021.9mb 81f 73f
2:50am 4ft 8s 7s 4 9 mph 1022mb 81f 74f
1:50am 4ft 10s 7s 7 9 mph 1022.1mb 81f 74f
12:50am 4ft 8s 7s 2 4 mph 1022.1mb 81f 74f
Thu 10/19 11:50pm 3.5ft 9s 6s 4 7 mph 1022.2mb 81f 74f
10:50pm 4ft 8s 6s 2 4 mph 1022.3mb 81f 74f
9:50pm 3.5ft 8s 6s 7 9 mph 1022.2mb 81f 74f
8:50pm 4ft 9s 6s 7 11 mph 1022.1mb 81f 74f
7:50pm 4.5ft 9s 7s 7 11 mph 1022mb 81f 74f
6:50pm 4.5ft 8s 6s 9 11 mph 1021.7mb 81f 74f
5:50pm 4.5ft 9s 7s 11 13 mph 1021.6mb 81f 75f
4:50pm 4.5ft 9s 6s 11 16 mph 1021.6mb 81f 75f
3:50pm 5ft 9s 6s 11 13 mph 1021.6mb 81f 75f
2:50pm 5ft 9s 6s 11 13 mph 1021.9mb 81f 75f
1:50pm 4.5ft 9s 6s 11 13 mph 1022.8mb 81f 75f
12:50pm 5ft 9s 6s 11 16 mph 1023.6mb 81f 75f
10:50am 5ft 10s 6s 16 20 mph 1024.3mb 81f 74f
9:50am 4.5ft 9s 6s 11 18 mph 1024mb 81f 75f
8:50am 5ft 10s 6s 13 18 mph 1023.8mb 81f 75f
7:50am 4.5ft 9s 6s 11 16 mph 1023.4mb 81f 74f
6:50am 5ft 9s 6s 13 18 mph 1023.3mb 81f 74f
5:50am 5ft 9s 6s 11 18 mph 1023.1mb 81f 74f
4:50am 5ft 9s 6s 9 13 mph 1023.3mb 81f 74f
3:50am 5ft 10s 6s 13 18 mph 1023.1mb 81f 74f
2:50am 5ft 10s 6s 9 13 mph 1023.8mb 82f 74f
1:50am 5ft 9s 6s 11 16 mph 1024mb 82f 74f
12:50am 5ft 9s 6s 18 20 mph 1024mb 82f 74f
Wed 10/18 11:50pm 5ft 9s 6s 16 22 mph 1024.4mb 82f 74f
10:50pm 6ft 10s 6s 11 16 mph 1024.8mb 82f 74f
9:50pm 6ft 9s 6s 16 20 mph 1024.7mb 82f 74f
8:50pm 6ft 10s 5s 16 22 mph 1024.7mb 82f 74f
7:50pm 6.5ft 7s 5s 20 25 mph 1024.4mb 82f 72f
6:50pm 6.5ft 9s 6s 22 29 mph 1024.2mb 82f 72f
5:50pm 6ft 10s 5s 20 25 mph 1024.1mb 82f 72f
4:50pm 6.5ft 6s 5s 22 25 mph 1024mb 82f 72f
3:50pm 7ft 6s 6s 22 29 mph 1024.2mb 82f 72f
2:50pm 7ft 9s 6s 25 29 mph 1024.5mb 82f 71f
1:50pm 6ft 10s 5s 22 31 mph 1024.7mb 82f 70f
12:50pm 6ft 9s 6s 22 27 mph 1025.5mb 82f 70f
11:50am 6ft 9s 6s 22 27 mph 1026mb 82f 69f
10:50am 6ft 8s 5s 22 27 mph 1025.8mb 82f 69f
9:50am 6ft 8s 5s 22 29 mph 1025.7mb 82f 68f
8:50am 5.5ft 9s 5s 22 27 mph 1025.4mb 82f 68f
7:50am 6ft 8s 5s 20 25 mph 1024.7mb 82f 68f
6:50am 7ft 9s 6s 22 27 mph 1024.2mb 82f 68f
5:50am 6.5ft 8s 6s 25 29 mph 1023.8mb 82f 68f
4:50am 7ft 8s 6s 25 29 mph 1023.3mb 81f 67f
3:50am 7ft 9s 6s 25 29 mph 1023.1mb 81f 67f
2:50am 7ft 9s 6s 22 29 mph 1023.4mb 81f 67f
1:50am 6.5ft 9s 6s 22 29 mph 1023.4mb 81f 66f
12:50am 6.5ft 9s 6s 22 29 mph 1023.8mb 81f 66f